Antonio Maceo International Airport


Codes: MUCU/SCU
Name: Antonio Maceo International Airport
City: Santiago
Country: Cuba
Elevation: 249 ft.
Wikipedia:

Photos at Antonio Maceo International Airport


   Photos courtesy of SpottingLog. You can add your own sightings and photos by signing up for a free trial today.



No photos found.

Weather at Antonio Maceo International Airport


Time (UTC)DescriptionTempratureWindCloud coverageVisibilityPressureHumidity
21-Jun-2024 12:00Light Rain27°C2 mph, 60%10000m1014hPa85%
21-Jun-2024 15:00Broken Clouds31°C2 mph, E79%10000m1014hPa65%
21-Jun-2024 18:00Light Rain32°C7 mph, SE99%10000m1013hPa62%
21-Jun-2024 21:00Moderate Rain29°C7 mph, SE100%10000m1013hPa85%
22-Jun-2024 00:00Light Rain26°C4 mph, SE100%10000m1014hPa91%
22-Jun-2024 03:00Light Rain25°C2 mph, NE99%10000m1016hPa94%
22-Jun-2024 06:00Overcast Clouds24°C4 mph, N100%10000m1014hPa92%
22-Jun-2024 09:00Overcast Clouds24°C2 mph, N100%10000m1014hPa91%
22-Jun-2024 12:00Overcast Clouds26°C2 mph, N100%10000m1015hPa87%
22-Jun-2024 15:00Overcast Clouds32°C2 mph, E99%10000m1015hPa57%
22-Jun-2024 18:00Light Rain32°C7 mph, SE100%10000m1013hPa64%
22-Jun-2024 21:00Moderate Rain28°C7 mph, SE100%10000m1012hPa86%
23-Jun-2024 00:00Light Rain26°C4 mph, E100%10000m1013hPa89%
23-Jun-2024 03:00Light Rain26°C2 mph, NE100%10000m1014hPa92%
23-Jun-2024 06:00Light Rain25°C4 mph, N99%10000m1013hPa93%
23-Jun-2024 09:00Light Rain24°C4 mph, N100%10000m1013hPa91%
23-Jun-2024 12:00Light Rain26°C2 mph, N100%10000m1014hPa87%
23-Jun-2024 15:00Overcast Clouds27°C4 mph, E100%10000m1014hPa81%
23-Jun-2024 18:00Light Rain30°C4 mph, SE98%10000m1014hPa73%
23-Jun-2024 21:00Moderate Rain26°C4 mph, SE99%10000m1013hPa90%
24-Jun-2024 00:00Light Rain25°C2 mph, E99%10000m1014hPa90%
24-Jun-2024 03:00Light Rain24°C2 mph, NE99%10000m1015hPa91%
24-Jun-2024 06:00Overcast Clouds24°C2 mph, N99%10000m1014hPa90%
24-Jun-2024 09:00Overcast Clouds24°C2 mph, NE100%10000m1013hPa87%
24-Jun-2024 12:00Overcast Clouds26°C2 mph, NE96%10000m1015hPa81%
24-Jun-2024 15:00Broken Clouds31°C4 mph, S76%10000m1015hPa55%
24-Jun-2024 18:00Broken Clouds32°C7 mph, S81%10000m1014hPa57%
24-Jun-2024 21:00Broken Clouds31°C4 mph, S72%10000m1014hPa60%
25-Jun-2024 00:00Light Rain26°C0 mph, NW62%10000m1015hPa85%
25-Jun-2024 03:00Light Rain24°C4 mph, NE97%10000m1017hPa91%
25-Jun-2024 06:00Light Rain24°C4 mph, NE99%10000m1015hPa93%
25-Jun-2024 09:00Overcast Clouds25°C2 mph, E100%10000m1014hPa88%
25-Jun-2024 12:00Overcast Clouds27°C4 mph, SE99%10000m1015hPa81%
25-Jun-2024 15:00Overcast Clouds31°C7 mph, S86%10000m1016hPa61%
25-Jun-2024 18:00Overcast Clouds32°C7 mph, S93%10000m1015hPa55%
25-Jun-2024 21:00Light Rain31°C7 mph, S78%10000m1015hPa60%
26-Jun-2024 00:00Light Rain27°C0 mph, S75%10000m1016hPa81%
26-Jun-2024 03:00Light Rain24°C4 mph, N100%10000m1018hPa92%
26-Jun-2024 06:00Overcast Clouds24°C4 mph, N100%10000m1016hPa94%
26-Jun-2024 09:00Overcast Clouds23°C4 mph, NE100%10000m1015hPa93%